createdAt,value
2024-02-27T00:00:04.633Z,6.20
2024-02-27T00:02:31.679Z,6.30
2024-02-27T00:04:58.775Z,6.30
2024-02-27T00:07:27.365Z,6.30
2024-02-27T00:09:54.368Z,6.30
2024-02-27T00:12:23.264Z,6.30
2024-02-27T00:14:50.364Z,6.30
2024-02-27T00:17:17.510Z,6.30
2024-02-27T00:19:44.648Z,6.30
2024-02-27T00:22:12.606Z,6.30
2024-02-27T00:24:39.658Z,6.30
2024-02-27T00:27:06.709Z,6.30
2024-02-27T00:29:35.098Z,6.20
2024-02-27T00:32:02.180Z,6.20
2024-02-27T00:34:30.336Z,6.20
2024-02-27T00:36:57.709Z,6.20
2024-02-27T00:39:25.100Z,6.20
2024-02-27T00:41:52.890Z,6.10
2024-02-27T00:44:22.404Z,6.10
2024-02-27T00:46:51.587Z,6.10
2024-02-27T00:49:18.963Z,6.10
2024-02-27T00:51:48.166Z,6.10
2024-02-27T00:54:15.216Z,6.10
2024-02-27T00:56:42.473Z,6.00
2024-02-27T00:59:09.597Z,6.00
2024-02-27T01:01:38.914Z,6.00
2024-02-27T01:04:06.046Z,6.00
2024-02-27T01:06:33.137Z,5.90
2024-02-27T01:09:00.298Z,6.00
2024-02-27T01:11:27.647Z,6.00
2024-02-27T01:13:55.200Z,6.00
2024-02-27T01:16:23.868Z,6.00
2024-02-27T01:18:51.124Z,5.90
2024-02-27T01:21:19.083Z,5.90
2024-02-27T01:23:46.147Z,5.90
2024-02-27T01:26:13.842Z,5.90
2024-02-27T01:28:41.294Z,5.90
2024-02-27T01:31:08.317Z,5.90
2024-02-27T01:33:37.927Z,5.90
2024-02-27T01:36:05.556Z,6.00
2024-02-27T01:38:32.670Z,5.90
2024-02-27T01:40:59.661Z,5.90
2024-02-27T01:43:29.384Z,6.00
2024-02-27T01:46:17.658Z,5.90
2024-02-27T01:48:46.469Z,5.90
2024-02-27T01:51:15.214Z,5.90
2024-02-27T01:53:44.968Z,5.90
2024-02-27T01:56:13.105Z,5.90
2024-02-27T01:58:42.983Z,5.90
2024-02-27T02:01:12.957Z,5.90
2024-02-27T02:03:40.936Z,5.90
2024-02-27T02:06:09.680Z,5.90
2024-02-27T02:08:37.256Z,5.90
2024-02-27T02:11:08.925Z,5.90
2024-02-27T02:13:36.515Z,5.90
2024-02-27T02:16:03.903Z,5.90
2024-02-27T02:18:31.861Z,5.90
2024-02-27T02:21:01.444Z,5.90
2024-02-27T02:23:28.723Z,5.80
2024-02-27T02:25:57.589Z,5.80
2024-02-27T02:28:24.560Z,5.80
2024-02-27T02:30:51.669Z,5.70
2024-02-27T02:33:19.283Z,5.70
2024-02-27T02:35:46.423Z,5.70
2024-02-27T02:38:14.646Z,5.70
2024-02-27T02:40:41.715Z,5.60
2024-02-27T02:43:09.201Z,5.60
2024-02-27T02:45:36.235Z,5.60
2024-02-27T02:48:03.443Z,5.60
2024-02-27T02:50:32.924Z,5.60
2024-02-27T02:53:00.041Z,5.70
2024-02-27T02:55:27.645Z,5.60
2024-02-27T02:57:54.712Z,5.60
2024-02-27T03:00:21.847Z,5.70
2024-02-27T03:02:51.470Z,5.60
2024-02-27T03:05:18.429Z,5.50
2024-02-27T03:07:45.635Z,5.40
2024-02-27T03:10:12.829Z,5.40
2024-02-27T03:12:40.887Z,5.40
2024-02-27T03:15:08.728Z,5.30
2024-02-27T03:17:39.284Z,5.40
2024-02-27T03:20:07.206Z,5.40
2024-02-27T03:22:34.196Z,5.40
2024-02-27T03:25:06.166Z,5.30
2024-02-27T03:27:34.040Z,5.30
2024-02-27T03:30:03.263Z,5.40
2024-02-27T03:32:30.599Z,5.30
2024-02-27T03:34:57.992Z,5.30
2024-02-27T03:37:25.191Z,5.40
2024-02-27T03:39:52.143Z,5.40
2024-02-27T03:42:19.257Z,5.30
2024-02-27T03:44:49.270Z,5.30
2024-02-27T03:47:16.502Z,5.30
2024-02-27T03:49:44.318Z,5.30
2024-02-27T03:52:12.290Z,5.30
2024-02-27T03:54:39.875Z,5.30
2024-02-27T03:57:07.171Z,5.30
2024-02-27T03:59:34.531Z,5.30
2024-02-27T04:02:01.527Z,5.30
2024-02-27T04:04:31.559Z,5.30
2024-02-27T04:06:58.588Z,5.30
2024-02-27T04:09:25.823Z,5.30
2024-02-27T04:11:52.872Z,5.30
2024-02-27T04:14:19.798Z,5.30
2024-02-27T04:16:47.206Z,5.30
2024-02-27T04:19:14.503Z,5.40
2024-02-27T04:21:41.649Z,5.40
2024-02-27T04:24:08.906Z,5.40
2024-02-27T04:26:35.905Z,5.40
2024-02-27T04:29:05.407Z,5.40
2024-02-27T04:31:32.502Z,5.40
2024-02-27T04:33:59.600Z,5.40
2024-02-27T04:36:28.203Z,5.40
2024-02-27T04:38:58.261Z,5.40
2024-02-27T04:41:25.273Z,5.40
2024-02-27T04:43:52.270Z,5.40
2024-02-27T04:46:19.253Z,5.40
2024-02-27T04:48:46.292Z,5.40
2024-02-27T04:51:13.368Z,5.40
2024-02-27T04:53:44.034Z,5.30
2024-02-27T04:56:11.684Z,5.30
2024-02-27T04:58:38.706Z,5.30
2024-02-27T05:01:05.933Z,5.40
2024-02-27T05:03:34.767Z,5.40
2024-02-27T05:06:03.374Z,5.40
2024-02-27T05:08:30.556Z,5.40
2024-02-27T05:10:57.531Z,5.40
2024-02-27T05:13:24.611Z,5.50
2024-02-27T05:15:51.598Z,5.50
2024-02-27T05:18:19.130Z,5.50
2024-02-27T05:20:47.670Z,5.60
2024-02-27T05:23:19.169Z,5.60
2024-02-27T05:25:48.020Z,5.50
2024-02-27T05:28:15.251Z,5.40
2024-02-27T05:30:43.941Z,5.40
2024-02-27T05:33:11.025Z,5.30
2024-02-27T05:35:38.798Z,5.30
2024-02-27T05:38:05.781Z,5.40
2024-02-27T05:40:32.732Z,5.30
2024-02-27T05:43:00.027Z,5.30
2024-02-27T05:45:27.226Z,5.30
2024-02-27T05:47:54.311Z,5.30
2024-02-27T05:50:21.346Z,5.30
2024-02-27T05:52:50.567Z,5.30
2024-02-27T05:55:17.656Z,5.30
2024-02-27T05:57:45.411Z,5.30
2024-02-27T06:00:15.274Z,5.30
2024-02-27T06:02:42.462Z,5.20
2024-02-27T06:05:09.625Z,5.20
2024-02-27T06:07:38.383Z,5.20
2024-02-27T06:10:05.774Z,5.20
2024-02-27T06:12:32.752Z,5.30
2024-02-27T06:14:59.869Z,5.20
2024-02-27T06:17:26.913Z,5.30
2024-02-27T06:20:01.538Z,5.30
2024-02-27T06:22:30.785Z,5.30
2024-02-27T06:24:57.743Z,5.40
2024-02-27T06:27:24.769Z,5.40
2024-02-27T06:29:51.970Z,5.40
2024-02-27T06:32:21.659Z,5.40
2024-02-27T06:34:49.390Z,5.40
2024-02-27T06:37:16.535Z,5.40
2024-02-27T06:39:43.434Z,5.40
2024-02-27T06:42:10.553Z,5.50
2024-02-27T06:44:40.166Z,5.50
2024-02-27T06:47:07.798Z,5.60
2024-02-27T06:49:35.120Z,5.60
2024-02-27T06:52:02.180Z,5.50
2024-02-27T06:54:29.139Z,5.50
2024-02-27T06:56:56.280Z,5.50
2024-02-27T06:59:23.155Z,5.50
2024-02-27T07:01:50.070Z,5.60
2024-02-27T07:04:17.245Z,5.60
2024-02-27T07:06:44.666Z,5.60
2024-02-27T07:09:11.796Z,5.60
2024-02-27T07:11:38.952Z,5.60
2024-02-27T07:14:05.997Z,5.70
2024-02-27T07:16:32.967Z,5.70
2024-02-27T07:19:00.118Z,5.70
2024-02-27T07:21:27.330Z,5.80
2024-02-27T07:23:54.930Z,5.80
2024-02-27T07:26:22.046Z,5.90
2024-02-27T07:28:49.008Z,5.90
2024-02-27T07:31:20.181Z,6.00
2024-02-27T07:33:47.224Z,6.00
2024-02-27T07:36:14.777Z,6.10
2024-02-27T07:38:41.957Z,6.10
2024-02-27T07:41:10.836Z,6.10
2024-02-27T07:43:38.122Z,6.10
2024-02-27T07:46:06.817Z,6.10
2024-02-27T07:48:34.046Z,6.10
2024-02-27T07:51:03.478Z,6.20
2024-02-27T07:53:32.732Z,6.20
2024-02-27T07:55:59.752Z,6.20
2024-02-27T07:58:27.168Z,6.20
2024-02-27T08:00:55.555Z,6.20
2024-02-27T08:03:22.688Z,6.20
2024-02-27T08:05:49.749Z,6.20
2024-02-27T08:08:18.273Z,6.20
2024-02-27T08:10:45.467Z,6.20
2024-02-27T08:13:14.731Z,6.20
2024-02-27T08:15:41.867Z,6.20
2024-02-27T08:18:09.457Z,6.20
2024-02-27T08:20:36.475Z,6.20
2024-02-27T08:23:03.902Z,6.30
2024-02-27T08:25:30.997Z,6.30
2024-02-27T08:27:58.196Z,6.30
2024-02-27T08:30:25.474Z,6.40
2024-02-27T08:32:53.899Z,6.40
2024-02-27T08:35:22.514Z,6.40
2024-02-27T08:37:49.505Z,6.50
2024-02-27T08:40:16.778Z,6.60
2024-02-27T08:42:43.841Z,6.60
2024-02-27T08:45:11.445Z,6.70
2024-02-27T08:47:38.786Z,6.80
2024-02-27T08:50:07.765Z,6.80
2024-02-27T08:52:34.712Z,6.80
2024-02-27T08:55:01.767Z,6.90
2024-02-27T08:57:29.034Z,6.90
2024-02-27T08:59:56.154Z,6.90
2024-02-27T09:02:25.229Z,7.00
2024-02-27T09:04:52.958Z,7.00
2024-02-27T09:07:20.785Z,7.00
2024-02-27T09:09:47.998Z,7.00
2024-02-27T09:12:15.164Z,7.00
2024-02-27T09:14:42.269Z,7.00
2024-02-27T09:17:10.876Z,7.00
2024-02-27T09:22:20.711Z,7.00
2024-02-27T09:24:47.817Z,7.10
2024-02-27T09:27:16.523Z,7.10
2024-02-27T09:29:44.634Z,7.10
2024-02-27T09:32:11.888Z,7.10
2024-02-27T09:34:40.565Z,7.20
2024-02-27T09:37:07.673Z,7.20
2024-02-27T09:39:40.995Z,7.20
2024-02-27T09:42:33.682Z,7.20
2024-02-27T09:45:08.043Z,7.20
2024-02-27T09:47:51.259Z,7.30
2024-02-27T09:50:21.632Z,7.20
2024-02-27T09:52:53.218Z,7.20
2024-02-27T09:55:21.712Z,7.20
2024-02-27T09:57:50.025Z,7.20
2024-02-27T10:00:21.638Z,7.20
2024-02-27T10:02:52.059Z,7.20
2024-02-27T10:05:21.511Z,7.20
2024-02-27T10:07:52.732Z,7.20
2024-02-27T10:10:20.410Z,7.20
2024-02-27T10:12:47.978Z,7.30
2024-02-27T10:15:15.774Z,7.30
2024-02-27T10:17:46.874Z,7.30
2024-02-27T10:20:14.759Z,7.40
2024-02-27T10:22:43.009Z,7.40
2024-02-27T10:25:18.410Z,7.40
2024-02-27T10:27:45.730Z,7.40
2024-02-27T10:30:13.540Z,7.50
2024-02-27T10:32:44.392Z,7.50
2024-02-27T10:35:15.788Z,7.50
2024-02-27T10:37:43.539Z,7.50
2024-02-27T10:40:13.436Z,7.50
2024-02-27T10:42:41.909Z,7.50
2024-02-27T10:45:11.368Z,7.50
2024-02-27T10:47:38.791Z,7.60
2024-02-27T10:50:07.730Z,7.60
2024-02-27T10:52:39.159Z,7.60
2024-02-27T10:55:08.362Z,7.70
2024-02-27T10:57:37.436Z,7.70
2024-02-27T11:00:05.848Z,7.70
2024-02-27T11:02:37.803Z,7.80
2024-02-27T11:05:05.618Z,7.80
2024-02-27T11:07:33.571Z,7.80
2024-02-27T11:10:01.771Z,7.90
2024-02-27T11:12:33.805Z,7.90
2024-02-27T11:15:12.010Z,7.90
2024-02-27T11:17:48.167Z,8.00
2024-02-27T11:20:21.919Z,7.90
2024-02-27T11:22:49.760Z,8.00
2024-02-27T11:25:17.327Z,8.00
2024-02-27T11:27:45.995Z,8.00
2024-02-27T11:30:14.803Z,8.00
2024-02-27T11:32:41.846Z,8.00
2024-02-27T11:35:11.585Z,8.00
2024-02-27T11:37:38.656Z,8.10
2024-02-27T11:40:07.633Z,8.10
2024-02-27T11:42:45.011Z,8.10
2024-02-27T11:45:15.749Z,8.10
2024-02-27T11:47:49.721Z,8.10
2024-02-27T11:50:36.512Z,8.20
2024-02-27T11:56:07.945Z,8.20
2024-02-27T11:58:42.829Z,8.30
2024-02-27T12:01:15.412Z,8.30
2024-02-27T12:06:27.277Z,8.30
2024-02-27T12:08:56.020Z,8.30
2024-02-27T12:11:24.962Z,8.30
2024-02-27T12:13:52.779Z,8.30
2024-02-27T12:16:36.378Z,8.30
2024-02-27T12:19:03.541Z,8.30
2024-02-27T12:21:35.603Z,8.40
2024-02-27T12:24:17.774Z,8.40
2024-02-27T12:26:46.946Z,8.40
2024-02-27T12:29:18.563Z,8.30
2024-02-27T12:31:45.727Z,8.30
2024-02-27T12:34:14.211Z,8.30
2024-02-27T12:36:41.921Z,8.30
2024-02-27T12:39:12.362Z,8.40
2024-02-27T12:41:39.562Z,8.40
2024-02-27T12:44:06.528Z,8.40
2024-02-27T12:49:22.872Z,8.40
2024-02-27T12:51:52.306Z,8.30
2024-02-27T12:57:09.528Z,8.40
2024-02-27T12:59:40.504Z,8.30
2024-02-27T13:02:08.842Z,8.30
2024-02-27T13:04:37.707Z,8.40
2024-02-27T13:07:05.305Z,8.30
2024-02-27T13:09:32.520Z,8.30
2024-02-27T13:12:09.912Z,8.30
2024-02-27T13:14:37.574Z,8.40
2024-02-27T13:17:04.598Z,8.30
2024-02-27T13:19:33.920Z,8.30
2024-02-27T13:22:02.280Z,8.30
2024-02-27T13:24:29.489Z,8.30
2024-02-27T13:26:58.860Z,8.20
2024-02-27T13:29:28.102Z,8.30
2024-02-27T13:31:56.371Z,8.30
2024-02-27T13:34:23.963Z,8.20
2024-02-27T13:36:51.117Z,8.20
2024-02-27T13:39:21.843Z,8.20
2024-02-27T13:41:49.217Z,8.10
2024-02-27T13:44:18.315Z,8.10
2024-02-27T13:46:45.490Z,8.10
2024-02-27T13:49:20.317Z,8.10
2024-02-27T13:51:49.107Z,8.10
2024-02-27T13:54:16.405Z,8.10
2024-02-27T13:56:43.754Z,8.10
2024-02-27T13:59:10.987Z,8.00
2024-02-27T14:01:38.773Z,8.00
2024-02-27T14:04:06.228Z,8.00
2024-02-27T14:06:33.646Z,8.00
2024-02-27T14:09:01.048Z,8.00
2024-02-27T14:11:28.333Z,8.00
2024-02-27T14:14:03.550Z,8.00
2024-02-27T14:16:43.363Z,7.90
2024-02-27T14:24:41.050Z,7.80
2024-02-27T14:27:08.134Z,7.80
2024-02-27T14:29:35.989Z,7.90
2024-02-27T14:32:03.437Z,7.90
2024-02-27T14:34:30.872Z,7.90
2024-02-27T14:36:58.073Z,7.80
2024-02-27T14:39:26.939Z,7.80
2024-02-27T14:41:54.418Z,7.90
2024-02-27T14:44:21.438Z,7.90
2024-02-27T14:46:49.520Z,7.90
2024-02-27T14:49:16.751Z,7.90
2024-02-27T14:51:46.380Z,7.90
2024-02-27T14:54:13.783Z,7.90
2024-02-27T14:56:40.937Z,7.90
2024-02-27T14:59:08.158Z,7.80
2024-02-27T15:01:37.017Z,7.80
2024-02-27T15:04:05.069Z,7.80
2024-02-27T15:06:32.241Z,7.80
2024-02-27T15:08:59.595Z,7.80
2024-02-27T15:11:26.944Z,7.80
2024-02-27T15:13:54.150Z,7.70
2024-02-27T15:16:21.426Z,7.70
2024-02-27T15:18:48.525Z,7.70
2024-02-27T15:21:15.752Z,7.70
2024-02-27T15:23:42.796Z,7.70
2024-02-27T15:26:09.978Z,7.70
2024-02-27T15:28:36.964Z,7.70
2024-02-27T15:31:04.223Z,7.70
2024-02-27T15:33:32.712Z,7.70
2024-02-27T15:35:59.855Z,7.60
2024-02-27T15:38:26.905Z,7.60
2024-02-27T15:40:54.261Z,7.70
2024-02-27T15:43:21.355Z,7.70
2024-02-27T15:45:48.499Z,7.70
2024-02-27T15:48:15.842Z,7.70
2024-02-27T15:50:43.089Z,7.70
2024-02-27T15:53:10.305Z,7.60
2024-02-27T15:55:37.335Z,7.60
2024-02-27T15:58:04.493Z,7.60
2024-02-27T16:00:32.732Z,7.60
2024-02-27T16:03:12.858Z,7.60
2024-02-27T16:05:40.409Z,7.60
2024-02-27T16:08:07.693Z,7.60
2024-02-27T16:10:35.032Z,7.60
2024-02-27T16:13:02.261Z,7.50
2024-02-27T16:15:31.357Z,7.50
2024-02-27T16:18:01.227Z,7.50
2024-02-27T16:20:28.643Z,7.50
2024-02-27T16:22:55.840Z,7.40
2024-02-27T16:25:24.346Z,7.40
2024-02-27T16:27:55.702Z,7.40
2024-02-27T16:30:22.933Z,7.40
2024-02-27T16:32:50.558Z,7.40
2024-02-27T16:35:17.881Z,7.40
2024-02-27T16:37:44.987Z,7.40
2024-02-27T16:40:12.448Z,7.40
2024-02-27T16:42:39.862Z,7.40
2024-02-27T16:45:07.762Z,7.30
2024-02-27T16:47:37.360Z,7.40
2024-02-27T16:50:06.498Z,7.40
2024-02-27T16:52:35.084Z,7.30
2024-02-27T16:55:02.462Z,7.30
2024-02-27T16:57:32.101Z,7.40
2024-02-27T17:00:03.574Z,7.30
2024-02-27T17:02:31.835Z,7.30
2024-02-27T17:04:58.849Z,7.40
2024-02-27T17:07:30.211Z,7.30
2024-02-27T17:09:57.422Z,7.30
2024-02-27T17:12:25.136Z,7.30
2024-02-27T17:14:52.297Z,7.30
2024-02-27T17:17:19.650Z,7.30
2024-02-27T17:19:46.889Z,7.40
2024-02-27T17:22:14.015Z,7.30
2024-02-27T17:24:41.092Z,7.30
2024-02-27T17:27:10.993Z,7.30
2024-02-27T17:29:41.992Z,7.30
2024-02-27T17:32:09.611Z,7.30
2024-02-27T17:34:36.771Z,7.30
2024-02-27T17:37:07.043Z,7.30
2024-02-27T17:39:37.881Z,7.20
2024-02-27T17:42:05.249Z,7.30
2024-02-27T17:44:32.671Z,7.20
2024-02-27T17:46:59.658Z,7.20
2024-02-27T17:49:26.758Z,7.20
2024-02-27T17:51:53.815Z,7.20
2024-02-27T17:54:21.652Z,7.20
2024-02-27T17:56:50.901Z,7.20
2024-02-27T17:59:19.268Z,7.10
2024-02-27T18:01:49.814Z,7.10
2024-02-27T18:04:17.498Z,7.10
2024-02-27T18:06:45.440Z,7.10
2024-02-27T18:09:14.573Z,7.10
2024-02-27T18:11:46.405Z,7.10
2024-02-27T18:14:13.410Z,7.10
2024-02-27T18:16:40.997Z,7.10
2024-02-27T18:19:08.685Z,7.10
2024-02-27T18:21:46.120Z,7.10
2024-02-27T18:24:13.404Z,7.10
2024-02-27T18:26:40.644Z,7.10
2024-02-27T18:29:08.416Z,7.10
2024-02-27T18:31:35.406Z,7.10
2024-02-27T18:34:03.528Z,7.10
2024-02-27T18:36:30.915Z,7.10
2024-02-27T18:38:58.196Z,7.10
2024-02-27T18:41:25.996Z,7.10
2024-02-27T18:43:54.456Z,7.10
2024-02-27T18:46:21.601Z,7.10
2024-02-27T18:48:48.653Z,7.10
2024-02-27T18:51:15.886Z,7.10
2024-02-27T18:53:44.148Z,7.10
2024-02-27T18:56:11.294Z,7.00
2024-02-27T18:58:38.371Z,7.00
2024-02-27T19:01:06.674Z,7.00
2024-02-27T19:03:33.917Z,7.00
2024-02-27T19:06:04.932Z,7.00
2024-02-27T19:08:34.872Z,7.00
2024-02-27T19:11:06.164Z,7.00
2024-02-27T19:13:34.903Z,6.90
2024-02-27T19:16:01.992Z,6.90
2024-02-27T19:18:29.030Z,7.00
2024-02-27T19:20:56.079Z,6.90
2024-02-27T19:23:23.168Z,7.00
2024-02-27T19:25:50.151Z,7.00
2024-02-27T19:28:17.154Z,7.00
2024-02-27T19:30:46.977Z,6.90
2024-02-27T19:33:18.247Z,6.90
2024-02-27T19:35:46.003Z,6.90
2024-02-27T19:38:19.168Z,6.90
2024-02-27T19:40:47.164Z,6.80
2024-02-27T19:43:14.361Z,6.80
2024-02-27T19:45:41.642Z,6.80
2024-02-27T19:48:09.587Z,6.80
2024-02-27T19:50:36.834Z,6.80
2024-02-27T19:53:08.177Z,6.80
2024-02-27T19:55:37.004Z,6.80
2024-02-27T19:58:04.167Z,6.80
2024-02-27T20:00:31.805Z,6.80
2024-02-27T20:03:00.262Z,6.80
2024-02-27T20:05:27.219Z,6.80
2024-02-27T20:07:58.338Z,6.70
2024-02-27T20:10:25.211Z,6.70
2024-02-27T20:12:54.740Z,6.60
2024-02-27T20:15:21.885Z,6.60
2024-02-27T20:17:49.085Z,6.60
2024-02-27T20:20:16.173Z,6.60
2024-02-27T20:22:43.260Z,6.60
2024-02-27T20:25:10.400Z,6.70
2024-02-27T20:27:38.056Z,6.70
2024-02-27T20:30:05.954Z,6.60
2024-02-27T20:32:33.035Z,6.60
2024-02-27T20:35:01.018Z,6.60
2024-02-27T20:37:27.979Z,6.60
2024-02-27T20:39:57.445Z,6.60
2024-02-27T20:42:24.736Z,6.50
2024-02-27T20:44:51.827Z,6.50
2024-02-27T20:47:18.865Z,6.60
2024-02-27T20:49:45.825Z,6.50
2024-02-27T20:52:13.867Z,6.50
2024-02-27T20:54:41.052Z,6.50
2024-02-27T20:57:08.183Z,6.50
2024-02-27T20:59:35.735Z,6.40
2024-02-27T21:02:04.529Z,6.50
2024-02-27T21:04:31.536Z,6.50
2024-02-27T21:06:59.047Z,6.50
2024-02-27T21:09:26.288Z,6.40
2024-02-27T21:11:54.768Z,6.40
2024-02-27T21:14:22.905Z,6.40
2024-02-27T21:16:49.882Z,6.40
2024-02-27T21:19:16.933Z,6.40
2024-02-27T21:21:45.592Z,6.40
2024-02-27T21:24:12.762Z,6.30
2024-02-27T21:26:40.812Z,6.30
2024-02-27T21:29:07.880Z,6.30
2024-02-27T21:31:35.910Z,6.20
2024-02-27T21:34:03.396Z,6.10
2024-02-27T21:36:30.453Z,6.10
2024-02-27T21:38:57.567Z,6.00
2024-02-27T21:41:24.795Z,6.20
2024-02-27T21:43:54.402Z,6.20
2024-02-27T21:46:21.560Z,6.20
2024-02-27T21:48:48.595Z,6.20
2024-02-27T21:51:15.752Z,6.20
2024-02-27T21:53:42.786Z,6.10
2024-02-27T21:56:12.377Z,6.00
2024-02-27T21:58:40.117Z,6.00
2024-02-27T22:01:07.207Z,6.00
2024-02-27T22:03:34.308Z,5.90
2024-02-27T22:06:02.097Z,5.80
2024-02-27T22:08:29.034Z,5.80
2024-02-27T22:10:56.074Z,5.80
2024-02-27T22:13:23.029Z,5.80
2024-02-27T22:15:50.665Z,5.80
2024-02-27T22:18:17.840Z,5.90
2024-02-27T22:20:44.852Z,5.80
2024-02-27T22:23:11.908Z,5.80
2024-02-27T22:25:38.848Z,5.80
2024-02-27T22:28:06.264Z,5.80
2024-02-27T22:30:33.451Z,5.80
2024-02-27T22:33:00.662Z,5.80
2024-02-27T22:35:28.111Z,5.70
2024-02-27T22:37:57.302Z,5.70
2024-02-27T22:40:24.314Z,5.70
2024-02-27T22:42:52.293Z,5.70
2024-02-27T22:45:19.687Z,5.60
2024-02-27T22:47:46.885Z,5.60
2024-02-27T22:52:43.331Z,5.60
2024-02-27T22:55:10.455Z,5.50
2024-02-27T22:57:38.354Z,5.50
2024-02-27T23:00:10.882Z,5.50
2024-02-27T23:02:39.103Z,5.50
2024-02-27T23:05:07.519Z,5.50
2024-02-27T23:07:34.569Z,5.50
2024-02-27T23:10:07.930Z,5.40
2024-02-27T23:12:40.387Z,5.40
2024-02-27T23:15:08.979Z,5.40
2024-02-27T23:17:36.280Z,5.40
2024-02-27T23:20:04.121Z,5.40
2024-02-27T23:22:31.126Z,5.30
2024-02-27T23:25:00.781Z,5.30
2024-02-27T23:27:27.952Z,5.30
2024-02-27T23:29:54.989Z,5.20
2024-02-27T23:32:21.968Z,5.20
2024-02-27T23:34:48.993Z,5.10
2024-02-27T23:37:17.113Z,5.10
2024-02-27T23:39:44.165Z,5.10
2024-02-27T23:42:11.272Z,5.10
2024-02-27T23:44:38.302Z,5.10
2024-02-27T23:47:08.736Z,5.20
2024-02-27T23:49:35.860Z,5.20
2024-02-27T23:52:02.947Z,5.10
2024-02-27T23:54:30.004Z,5.10
2024-02-27T23:56:56.989Z,5.10
2024-02-27T23:59:24.056Z,5.00
